Terminal Aerodrome Forecast
Issued by NWS Sioux Falls, SD

Home | Current Version | Previous Version | Graphics & Text | Print | Product List | Glossary Off
Versions: 1 2 3 4 5 6 7 8 9 10 11 12 13 14 15 16 17 18 19 20 21 22 23 24 25 26

845
FTUS43 KFSD 221120
TAFSUX
TAF
KSUX 221120Z 2212/2312 19013KT P6SM FEW250
     FM221700 13006KT P6SM SCT130
     FM221900 08007KT P6SM BKN080
     FM222100 01010KT P6SM VCTS BKN045CB
     FM230200 35007KT P6SM SCT200
     FM230900 32006KT P6SM SCT250=

USA.gov is the U.S. government's official web portal to all federal, state and local government web resources and services.